Time;durP1;ratioP1;P1;durP2;ratioP2;P2;SDS_P1;SDS_P2;PMS_P1;PMS_P2;Temp;Humidity;BMP_temperature;BMP_pressure;BME280_temperature;BME280_humidity;BME280_pressure;Samples;Min_cycle;Max_cycle;Signal;HPM_P1;HPM_P2
2021/12/02 00:00:05;;;;;;;4.03;1.83;;;2.00;99.90;;;1.50;95.89;96147.75;172418;28;852;-74
2021/12/02 00:00:12;;;;;;;4.18;1.90;;;2.00;99.90;;;1.53;96.03;96144.78;172438;28;887;-73
2021/12/02 00:00:18;;;;;;;4.16;1.88;;;2.00;99.90;;;1.54;95.97;96151.75;171687;28;1433;-73
2021/12/02 00:00:24;;;;;;;4.07;1.85;;;2.00;99.90;;;1.32;95.51;96106.47;171642;28;1377;-74
2021/12/02 00:00:30;;;;;;;4.92;2.06;;;2.00;99.90;;;1.30;95.90;96106.63;171970;28;1253;-72
2021/12/02 00:00:37;;;;;;;5.53;2.43;;;2.00;99.90;;;1.54;95.92;96143.78;170792;28;1368;-74
2021/12/02 00:00:42;;;;;;;5.35;2.42;;;2.00;99.90;;;1.51;96.40;96146.75;170946;28;1623;-73
2021/12/02 00:00:48;;;;;;;6.15;2.58;;;2.00;99.90;;;1.52;96.19;96136.97;171226;28;958;-73
2021/12/02 00:00:54;;;;;;;7.40;2.90;;;2.00;99.90;;;1.43;95.63;96122.91;173104;28;918;-73
2021/12/02 00:01:00;;;;;;;6.70;2.70;;;2.00;99.90;;;1.52;95.83;96143.13;172494;28;1415;-73
2021/12/02 00:01:08;;;;;;;6.07;2.38;;;2.00;99.90;;;1.55;96.42;96142.81;171039;28;1288;-73
2021/12/02 00:01:14;;;;;;;6.12;2.30;;;2.00;99.90;;;1.47;96.22;96129.53;172380;28;1319;-73
2021/12/02 00:01:21;;;;;;;5.00;2.30;;;2.00;99.90;;;1.55;96.19;96145.47;172720;28;916;-73
2021/12/02 00:01:27;;;;;;;5.23;2.30;;;2.00;99.90;;;1.62;96.07;96161.53;171909;28;875;-74
2021/12/02 00:01:33;;;;;;;4.97;2.38;;;2.00;99.90;;;1.43;96.01;96124.72;170892;28;1217;-74
2021/12/02 00:01:39;;;;;;;5.03;2.50;;;2.00;99.90;;;1.48;95.83;96127.69;172173;28;1354;-73
2021/12/02 00:01:45;;;;;;;5.25;2.50;;;2.00;99.90;;;1.56;95.66;96144.44;170916;28;1505;-73
2021/12/02 00:01:51;;;;;;;5.25;2.17;;;2.00;99.90;;;1.50;96.15;96137.13;171763;28;1247;-74
2021/12/02 00:01:57;;;;;;;5.43;2.10;;;2.00;99.90;;;1.51;95.63;96138.78;172502;28;1117;-73
2021/12/02 00:02:06;;;;;;;5.75;2.15;;;2.00;99.90;;;1.54;95.78;96137.66;174552;28;928;-73
2021/12/02 00:02:12;;;;;;;6.99;2.57;;;2.00;99.90;;;1.64;95.57;96149.75;172313;28;1061;-75
2021/12/02 00:02:18;;;;;;;7.60;2.67;;;2.00;99.90;;;1.61;96.10;96149.25;173070;28;1410;-73
2021/12/02 00:02:24;;;;;;;7.10;2.60;;;2.00;99.90;;;1.47;95.88;96123.38;173213;28;1135;-73
2021/12/02 00:02:30;;;;;;;7.93;2.58;;;2.00;99.90;;;1.38;95.65;96108.47;172170;28;1276;-73
2021/12/02 00:02:37;;;;;;;7.60;2.40;;;2.00;99.90;;;1.59;95.80;96149.44;171880;28;1509;-74
2021/12/02 00:02:43;;;;;;;6.07;2.00;;;2.00;99.90;;;1.56;96.01;96140.94;171678;28;1001;-73
2021/12/02 00:02:49;;;;;;;5.93;2.10;;;2.00;99.90;;;1.57;95.58;96148.75;170568;29;935;-73
2021/12/02 00:02:55;;;;;;;4.95;2.05;;;2.00;99.90;;;1.55;95.93;96137.50;171634;28;1434;-73
2021/12/02 00:03:04;;;;;;;4.43;2.10;;;2.00;99.90;;;1.60;95.72;96148.44;171826;28;930;-73
2021/12/02 00:03:10;;;;;;;5.53;2.13;;;2.00;99.90;;;1.57;95.98;96143.44;171583;28;1904;-74
2021/12/02 00:03:16;;;;;;;5.63;2.03;;;2.00;99.90;;;1.61;95.92;96151.91;171001;28;1453;-73
2021/12/02 00:03:22;;;;;;;6.63;2.10;;;2.00;99.90;;;1.59;95.49;96145.94;172672;28;895;-74
2021/12/02 00:03:28;;;;;;;6.60;2.20;;;2.00;99.90;;;1.49;95.88;96132.84;173227;28;847;-73
2021/12/02 00:03:35;;;;;;;6.43;2.20;;;2.00;99.90;;;1.57;95.64;96150.56;171608;28;937;-73
2021/12/02 00:03:42;;;;;;;6.12;2.20;;;2.00;99.90;;;1.57;95.65;96145.28;171283;28;1397;-73
2021/12/02 00:03:49;;;;;;;6.33;2.27;;;2.00;99.90;;;1.23;95.18;96090.56;172562;28;1167;-73
2021/12/02 00:03:55;;;;;;;6.23;2.27;;;2.00;99.90;;;1.47;95.47;96140.13;171841;28;910;-73
2021/12/02 00:04:02;;;;;;;6.80;2.57;;;2.00;99.90;;;1.52;95.55;96142.28;171716;28;1486;-74
2021/12/02 00:04:08;;;;;;;6.87;2.60;;;2.00;99.90;;;1.55;95.60;96153.41;171899;28;817;-73
2021/12/02 00:04:14;;;;;;;7.30;2.50;;;2.00;99.90;;;1.40;95.59;96131.16;171696;28;1287;-72
2021/12/02 00:04:20;;;;;;;6.23;2.47;;;2.00;99.90;;;1.42;95.59;96126.53;171628;28;954;-73
2021/12/02 00:04:28;;;;;;;7.00;2.45;;;2.00;99.90;;;1.59;96.00;96151.25;169954;29;1352;-73
2021/12/02 00:04:37;;;;;;;7.00;2.30;;;2.00;99.90;;;1.43;95.68;96135.31;171722;28;985;-73
2021/12/02 00:04:44;;;;;;;6.73;2.44;;;2.00;99.90;;;1.58;95.77;96154.88;170413;28;1274;-74
2021/12/02 00:04:50;;;;;;;6.46;2.36;;;2.00;99.90;;;1.60;96.30;96150.25;171189;28;891;-74
2021/12/02 00:04:56;;;;;;;5.80;2.13;;;2.00;99.90;;;1.45;96.22;96131.50;171103;28;1371;-73
2021/12/02 00:05:04;;;;;;;5.47;2.17;;;2.00;99.90;;;1.50;96.28;96139.78;171773;28;1205;-74
2021/12/02 00:05:10;;;;;;;5.53;2.30;;;2.00;99.90;;;1.49;96.18;96135.50;172306;28;1453;-73
2021/12/02 00:05:16;;;;;;;7.35;2.70;;;2.00;99.90;;;1.46;96.15;96133.16;171851;28;868;-74
2021/12/02 00:05:22;;;;;;;7.75;3.10;;;2.00;99.90;;;1.45;96.56;96126.19;172054;28;1590;-74
2021/12/02 00:05:28;;;;;;;7.47;3.08;;;2.00;99.90;;;1.49;96.26;96138.16;173180;28;930;-74
2021/12/02 00:05:34;;;;;;;7.60;3.15;;;2.00;99.90;;;1.48;96.70;96131.19;171894;28;1339;-73
2021/12/02 00:05:40;;;;;;;7.06;2.94;;;2.00;99.90;;;1.52;96.32;96140.47;171895;28;1435;-73
2021/12/02 00:05:46;;;;;;;5.97;2.77;;;2.00;99.90;;;1.48;96.62;96136.50;172203;28;1233;-74
2021/12/02 00:05:52;;;;;;;6.23;2.77;;;2.00;99.90;;;1.49;96.38;96135.50;173244;28;927;-73
2021/12/02 00:05:58;;;;;;;6.70;2.77;;;2.00;99.90;;;1.40;96.55;96128.50;173117;28;1060;-73
2021/12/02 00:06:11;;;;;;;8.00;2.78;;;2.00;99.90;;;1.56;96.68;96141.78;172482;28;1195;-73
2021/12/02 00:06:19;;;;;;;8.65;2.70;;;2.00;99.90;;;1.33;96.39;96103.66;172350;28;1215;-73
2021/12/02 00:06:26;;;;;;;7.57;2.43;;;2.00;99.90;;;1.51;96.38;96138.78;172359;28;1076;-73
2021/12/02 00:06:32;;;;;;;6.67;2.40;;;2.00;99.90;;;1.61;96.37;96155.38;171718;28;1406;-74
2021/12/02 00:06:39;;;;;;;5.38;2.45;;;2.00;99.90;;;1.53;96.36;96141.28;171724;28;1323;-73
2021/12/02 00:06:45;;;;;;;5.43;2.50;;;2.00;99.90;;;1.59;96.73;96146.78;174041;28;1305;-74
2021/12/02 00:06:51;;;;;;;5.82;2.50;;;2.00;99.90;;;1.53;96.50;96139.47;172269;28;1334;-74
2021/12/02 00:06:57;;;;;;;5.72;2.58;;;2.00;99.90;;;1.52;96.30;96140.47;170956;28;1482;-73
2021/12/02 00:07:07;;;;;;;5.80;2.80;;;2.00;99.90;;;1.56;96.42;96144.44;171751;28;1228;-74
2021/12/02 00:07:13;;;;;;;5.83;2.50;;;2.00;99.90;;;1.55;96.41;96140.16;171786;28;888;-74
2021/12/02 00:07:19;;;;;;;6.07;2.37;;;2.00;99.90;;;1.64;96.70;96157.72;172142;28;1278;-74
2021/12/02 00:07:25;;;;;;;6.50;2.47;;;2.00;99.90;;;1.49;96.62;96130.19;172536;28;808;-74
2021/12/02 00:07:31;;;;;;;6.38;2.33;;;2.00;99.90;;;1.65;96.23;96162.03;171731;28;1056;-74
2021/12/02 00:07:37;;;;;;;5.70;2.10;;;2.00;99.90;;;1.61;96.74;96143.94;171794;28;972;-74
2021/12/02 00:07:43;;;;;;;5.70;2.20;;;2.00;99.90;;;1.51;96.79;96127.34;171678;28;1235;-73
2021/12/02 00:07:51;;;;;;;6.47;2.27;;;2.00;99.90;;;1.40;96.80;96112.59;172943;28;1309;-73
2021/12/02 00:07:57;;;;;;;5.97;2.08;;;2.00;99.90;;;1.44;96.37;96118.41;172970;28;1748;-74
2021/12/02 00:08:03;;;;;;;5.70;2.10;;;2.00;99.90;;;1.52;96.75;96132.50;172478;28;1291;-73
2021/12/02 00:08:09;;;;;;;5.80;2.00;;;2.00;99.90;;;1.28;95.96;96090.06;171603;28;1264;-73
2021/12/02 00:08:15;;;;;;;6.03;2.00;;;2.00;99.90;;;1.48;96.20;96133.84;171674;28;1207;-73
2021/12/02 00:08:21;;;;;;;5.52;2.24;;;2.00;99.90;;;1.52;96.80;96135.16;171752;28;962;-73
2021/12/02 00:08:28;;;;;;;6.40;2.30;;;2.00;99.90;;;1.54;96.49;96129.69;170974;28;880;-73
2021/12/02 00:08:34;;;;;;;7.13;2.37;;;2.00;99.90;;;1.59;96.14;96143.28;172524;28;836;-73
2021/12/02 00:08:41;;;;;;;7.70;2.80;;;2.00;99.90;;;1.26;96.12;96092.03;172912;28;1405;-73
2021/12/02 00:08:50;;;;;;;7.70;2.90;;;2.00;99.90;;;1.56;96.53;96141.78;173059;28;1362;-74
2021/12/02 00:08:56;;;;;;;7.37;2.89;;;2.00;99.90;;;1.65;96.35;96162.03;171776;28;1038;-73
2021/12/02 00:09:02;;;;;;;7.20;2.87;;;2.00;99.90;;;1.62;96.37;96146.44;170576;29;857;-73
2021/12/02 00:09:08;;;;;;;7.15;2.88;;;2.00;99.90;;;1.61;96.67;96147.44;172774;28;1060;-73
2021/12/02 00:09:14;;;;;;;6.55;2.60;;;2.00;99.90;;;1.50;95.87;96131.84;173971;28;852;-72
2021/12/02 00:09:20;;;;;;;6.35;2.55;;;2.00;99.90;;;1.64;95.88;96155.06;171652;28;1052;-73
2021/12/02 00:09:26;;;;;;;5.67;2.50;;;2.00;99.90;;;1.43;96.46;96114.94;171734;28;1258;-74
2021/12/02 00:09:34;;;;;;;5.28;2.42;;;2.00;99.90;;;1.60;96.15;96145.78;171298;28;1275;-73
2021/12/02 00:09:40;;;;;;;4.63;2.10;;;2.00;99.90;;;1.63;95.84;96148.09;171258;28;1301;-75
2021/12/02 00:09:46;;;;;;;4.63;2.13;;;2.00;99.90;;;1.51;95.95;96130.84;171467;28;1079;-74
2021/12/02 00:09:54;;;;;;;4.53;2.10;;;2.00;99.90;;;1.47;95.70;96118.09;171686;28;1380;-73
2021/12/02 00:10:01;;;;;;;4.65;2.07;;;2.00;99.90;;;1.58;96.08;96137.16;170147;29;1333;-73
2021/12/02 00:10:07;;;;;;;4.87;2.30;;;2.00;99.90;;;1.67;95.57;96154.72;170593;29;891;-73
2021/12/02 00:10:13;;;;;;;5.67;2.37;;;2.00;99.90;;;1.61;95.89;96141.28;170682;28;1292;-73
2021/12/02 00:10:19;;;;;;;6.17;2.40;;;2.00;99.90;;;1.63;95.79;96150.75;172498;28;921;-73
2021/12/02 00:10:30;;;;;;;7.07;2.30;;;2.00;99.90;;;1.62;95.93;96142.94;172269;28;1214;-73
2021/12/02 00:10:37;;;;;;;6.84;2.41;;;2.00;99.90;;;1.59;95.76;96138.81;172603;28;1629;-74
2021/12/02 00:10:43;;;;;;;6.63;2.40;;;2.00;99.90;;;1.50;96.23;96123.06;171073;28;1237;-73
2021/12/02 00:10:49;;;;;;;6.00;2.50;;;2.00;99.90;;;1.59;95.97;96141.47;171053;28;1163;-74
2021/12/02 00:10:55;;;;;;;5.03;2.53;;;2.00;99.90;;;1.48;95.98;96117.94;171352;28;1396;-73
2021/12/02 00:11:02;;;;;;;5.80;2.55;;;2.00;99.90;;;1.63;95.69;96141.97;171852;28;912;-73
2021/12/02 00:11:09;;;;;;;5.85;2.53;;;2.00;99.90;;;1.50;95.81;96126.53;170955;28;1575;-73
2021/12/02 00:11:17;;;;;;;7.07;2.53;;;2.00;99.90;;;1.62;96.04;96150.91;173047;28;1445;-74
2021/12/02 00:11:23;;;;;;;7.32;2.60;;;2.00;99.90;;;1.58;95.78;96134.50;171102;28;1350;-73
2021/12/02 00:11:30;;;;;;;7.07;2.70;;;2.00;99.90;;;1.69;96.00;96152.75;171739;28;1391;-75
2021/12/02 00:11:36;;;;;;;6.37;2.37;;;2.00;99.90;;;1.54;96.13;96127.88;172725;28;1962;-73
2021/12/02 00:11:41;;;;;;;6.28;2.35;;;2.00;99.90;;;1.71;95.93;96157.88;171429;28;1489;-73
2021/12/02 00:11:47;;;;;;;6.32;2.40;;;2.10;99.90;;;1.65;95.82;96142.66;171624;28;1245;-73
2021/12/02 00:11:53;;;;;;;6.65;2.42;;;2.00;99.90;;;1.72;95.99;96156.88;172410;28;1247;-73
2021/12/02 00:12:00;;;;;;;6.95;2.45;;;2.00;99.90;;;1.54;95.81;96129.69;171525;28;1248;-74
2021/12/02 00:12:08;;;;;;;8.07;2.70;;;2.00;99.90;;;1.64;96.01;96146.28;171180;28;1523;-74
2021/12/02 00:12:14;;;;;;;7.16;2.62;;;2.10;99.90;;;1.62;95.87;96138.47;171590;28;1162;-73
2021/12/02 00:12:20;;;;;;;6.36;2.60;;;2.10;99.90;;;1.52;95.71;96124.56;172439;28;1427;-73
2021/12/02 00:12:26;;;;;;;7.05;2.45;;;2.10;99.90;;;1.69;95.59;96151.91;172312;28;1062;-73
2021/12/02 00:12:33;;;;;;;5.87;2.23;;;2.10;99.90;;;1.65;96.19;96148.78;171763;28;1546;-73
2021/12/02 00:12:39;;;;;;;5.20;2.17;;;2.10;99.90;;;1.60;96.14;96137.00;169784;29;1500;-74
2021/12/02 00:12:45;;;;;;;4.93;2.08;;;2.10;99.90;;;1.63;95.72;96148.09;170402;29;896;-73
2021/12/02 00:12:52;;;;;;;4.55;2.00;;;2.10;99.90;;;1.65;95.77;96146.13;170993;28;1025;-74
2021/12/02 00:12:59;;;;;;;4.20;2.02;;;2.10;99.90;;;1.64;95.88;96144.47;171029;28;1391;-73
2021/12/02 00:13:05;;;;;;;4.60;2.17;;;2.10;99.90;;;1.55;95.97;96134.84;172712;28;1527;-73
2021/12/02 00:13:12;;;;;;;5.00;2.13;;;2.10;99.90;;;1.35;95.65;96099.00;172717;28;1538;-73
2021/12/02 00:13:22;;;;;;;5.20;2.13;;;2.10;99.90;;;1.61;96.24;96139.47;171717;28;1021;-74
2021/12/02 00:13:31;;;;;;;5.58;2.06;;;2.10;99.90;;;1.67;96.26;96149.44;171676;28;1346;-74
2021/12/02 00:14:01;;;;;;;7.03;2.80;;;2.10;99.90;;;1.53;96.04;96125.38;172907;28;1485;-73
2021/12/02 00:14:12;;;;;;;6.64;2.77;;;2.10;99.90;;;1.54;96.14;96129.69;173507;28;1791;-74
2021/12/02 00:14:24;;;;;;;6.27;2.73;;;2.10;99.90;;;1.58;95.82;96136.31;172444;28;1243;-74
2021/12/02 00:14:38;;;;;;;5.91;2.55;;;2.10;99.90;;;1.52;95.75;96123.72;173697;28;2693;-73
2021/12/02 00:14:47;;;;;;;6.05;2.50;;;2.10;99.90;;;1.59;95.84;96135.34;172357;28;1595;-73
2021/12/02 00:14:53;;;;;;;6.25;2.40;;;2.10;99.90;;;1.65;95.63;96154.09;172635;28;1201;-73
2021/12/02 00:15:05;;;;;;;6.80;2.40;;;2.10;99.90;;;1.59;95.77;96149.44;173031;28;1500;-72
2021/12/02 00:15:22;;;;;;;6.74;2.45;;;2.00;99.90;;;1.60;96.18;96148.44;171799;28;2926;-72
2021/12/02 00:15:36;;;;;;;6.91;2.80;;;2.10;99.90;;;1.55;95.63;96137.50;169714;29;1447;-73
2021/12/02 00:15:49;;;;;;;8.36;2.90;;;2.00;99.90;;;1.66;95.66;96152.22;170793;28;1466;-74
2021/12/02 00:16:17;;;;;;;7.44;2.64;;;2.00;99.90;;;1.68;96.07;96161.69;171076;28;1456;-74
2021/12/02 00:17:04;;;;;;;5.44;2.54;;;2.00;99.90;;;1.57;95.99;96135.50;173268;28;1205;-73
2021/12/02 00:17:26;;;;;;;6.26;2.66;;;2.00;99.90;;;1.56;95.83;96138.31;172526;28;1147;-73
2021/12/02 00:17:37;;;;;;;7.03;2.64;;;2.00;99.90;;;1.64;95.63;96154.25;172635;28;1227;-73
2021/12/02 00:17:51;;;;;;;9.84;2.80;;;2.00;99.90;;;1.55;95.69;96140.16;172851;28;1443;-73
2021/12/02 00:18:29;;;;;;;9.05;2.51;;;2.00;99.90;;;1.63;95.45;96152.56;170848;28;2848;-74
2021/12/02 00:21:26;;;;;;;6.61;2.96;;;2.00;99.90;;;1.60;96.08;96147.59;171995;28;1193;-73
2021/12/02 00:21:32;;;;;;;5.29;2.53;;;2.00;99.90;;;1.60;95.56;96151.09;171620;28;1398;-74
2021/12/02 00:21:51;;;;;;;5.10;2.40;;;2.00;99.90;;;1.51;95.39;96137.97;171250;28;1502;-74
2021/12/02 00:22:01;;;;;;;5.57;2.55;;;2.00;99.90;;;1.58;95.62;96144.28;172682;28;1588;-74
2021/12/02 00:22:11;;;;;;;7.51;3.03;;;2.00;99.90;;;1.56;95.59;96143.59;172442;28;2726;-73
2021/12/02 00:22:23;;;;;;;8.60;3.08;;;2.00;99.90;;;1.50;96.04;96131.03;172185;28;1558;-73
2021/12/02 00:22:31;;;;;;;7.95;2.78;;;2.00;99.90;;;1.63;95.70;96156.06;171871;28;1799;-73
2021/12/02 00:23:34;;;;;;;6.60;2.52;;;2.00;99.90;;;1.59;95.50;96151.25;171890;28;1097;-73
2021/12/02 00:24:06;;;;;;;6.05;2.55;;;2.00;99.90;;;1.64;96.25;96151.59;170406;28;1345;-74
2021/12/02 00:24:18;;;;;;;6.79;2.40;;;2.00;99.90;;;1.61;96.34;96154.56;172336;28;1370;-73
2021/12/02 00:24:24;;;;;;;7.01;2.36;;;2.00;99.90;;;1.60;96.26;96147.59;172781;28;1456;-73
2021/12/02 00:24:36;;;;;;;7.65;2.35;;;2.00;99.90;;;1.63;95.88;96161.38;173022;28;1448;-72
2021/12/02 00:24:51;;;;;;;8.09;2.44;;;2.00;99.90;;;1.44;96.31;96121.06;171844;28;1211;-73
2021/12/02 00:25:04;;;;;;;8.02;2.40;;;2.00;99.90;;;1.64;96.35;96155.06;171720;28;1336;-74
2021/12/02 00:25:10;;;;;;;6.70;2.53;;;2.00;99.90;;;1.47;96.46;96121.56;172144;28;2032;-73
2021/12/02 00:25:16;;;;;;;6.60;2.78;;;2.00;99.90;;;1.64;96.67;96155.06;172453;28;1418;-73
2021/12/02 00:25:24;;;;;;;7.40;2.90;;;2.00;99.90;;;1.65;96.21;96154.09;172557;28;1398;-73
2021/12/02 00:25:30;;;;;;;6.77;2.77;;;2.00;99.90;;;1.47;96.17;96128.69;172939;28;1253;-73
2021/12/02 00:25:36;;;;;;;7.95;2.75;;;2.00;99.90;;;1.61;96.23;96151.91;173202;28;958;-73
2021/12/02 00:25:43;;;;;;;9.77;2.87;;;2.00;99.90;;;1.65;96.31;96151.44;171036;28;1501;-74
2021/12/02 00:25:51;;;;;;;10.25;3.00;;;2.00;99.90;;;1.56;96.13;96140.94;173055;28;1363;-73
2021/12/02 00:26:01;;;;;;;10.18;3.18;;;2.00;99.90;;;1.51;96.82;96137.97;172847;28;1641;-74
2021/12/02 00:26:17;;;;;;;9.08;3.09;;;2.00;99.90;;;1.60;96.47;96148.44;173680;28;1468;-74
2021/12/02 00:26:24;;;;;;;6.46;2.90;;;2.00;99.90;;;1.44;96.79;96126.38;172697;28;1370;-74
2021/12/02 00:26:34;;;;;;;5.34;2.72;;;2.00;99.90;;;1.62;96.04;96157.03;172338;28;1334;-75
2021/12/02 00:26:40;;;;;;;4.96;2.70;;;2.00;99.90;;;1.60;96.40;96148.44;171664;28;1474;-73
2021/12/02 00:26:49;;;;;;;4.70;2.47;;;2.00;99.90;;;1.42;96.52;96126.53;172440;28;1067;-73
2021/12/02 00:26:57;;;;;;;5.79;2.54;;;2.00;99.90;;;1.59;96.46;96145.94;173214;28;1027;-73
2021/12/02 00:27:10;;;;;;;7.17;2.68;;;2.00;99.90;;;1.51;96.45;96130.00;172278;28;1598;-74
2021/12/02 00:27:18;;;;;;;8.25;2.71;;;2.00;99.90;;;1.58;96.37;96147.78;171975;28;1551;-73
2021/12/02 00:27:28;;;;;;;7.33;2.50;;;2.00;99.90;;;1.53;96.74;96131.53;171752;28;1332;-72
2021/12/02 00:27:34;;;;;;;6.07;2.50;;;2.00;99.90;;;1.56;96.68;96152.38;172488;28;926;-73
2021/12/02 00:27:43;;;;;;;5.60;2.44;;;2.00;99.90;;;1.65;96.48;96158.56;171879;28;1025;-73
2021/12/02 00:27:49;;;;;;;5.14;2.49;;;2.00;99.90;;;1.61;96.28;96150.06;172413;28;1656;-74
2021/12/02 00:27:57;;;;;;;5.05;2.42;;;2.00;99.90;;;1.60;96.08;96145.78;172954;28;1040;-73
2021/12/02 00:28:04;;;;;;;5.28;2.30;;;2.00;99.90;;;1.66;96.03;96158.38;173701;28;1309;-73
2021/12/02 00:28:11;;;;;;;6.10;2.37;;;2.00;99.90;;;1.56;96.47;96140.94;172837;28;1179;-73
2021/12/02 00:28:20;;;;;;;6.78;2.30;;;2.00;99.90;;;1.51;96.16;96130.84;173859;28;1021;-74
2021/12/02 00:28:29;;;;;;;7.31;2.45;;;2.00;99.90;;;1.67;95.92;96160.03;172269;28;1325;-73
2021/12/02 00:28:38;;;;;;;6.40;2.46;;;2.00;99.90;;;1.62;96.35;96151.75;171416;28;1015;-73
2021/12/02 00:28:49;;;;;;;6.16;2.54;;;2.00;99.90;;;1.40;95.92;96115.25;171709;28;1331;-74
2021/12/02 00:29:00;;;;;;;5.50;2.57;;;2.00;99.90;;;1.55;95.85;96142.81;171742;28;1419;-73
2021/12/02 00:29:08;;;;;;;5.44;2.47;;;2.00;99.90;;;1.60;95.93;96148.44;172965;28;1289;-73
2021/12/02 00:29:19;;;;;;;5.39;2.33;;;2.00;99.90;;;1.45;95.90;96128.03;172858;28;1147;-74
2021/12/02 00:29:28;;;;;;;5.20;2.21;;;2.00;99.90;;;1.44;95.83;96121.91;172291;28;1408;-73
2021/12/02 00:29:39;;;;;;;6.03;2.31;;;2.00;99.90;;;1.60;96.19;96153.75;172308;28;1438;-73
2021/12/02 00:29:47;;;;;;;5.82;2.34;;;2.00;99.90;;;1.59;95.78;96149.44;173535;28;1263;-74
2021/12/02 00:29:57;;;;;;;5.87;2.40;;;2.00;99.90;;;1.64;96.41;96160.38;171819;28;911;-74
2021/12/02 00:30:04;;;;;;;6.63;2.48;;;2.00;99.90;;;1.59;96.49;96152.09;170963;28;1332;-72
2021/12/02 00:30:10;;;;;;;6.32;2.42;;;2.00;99.90;;;1.46;96.41;96130.50;172319;28;1210;-73
2021/12/02 00:30:18;;;;;;;6.38;2.45;;;2.00;99.90;;;1.57;96.08;96146.09;172460;28;859;-73
2021/12/02 00:30:25;;;;;;;6.67;2.50;;;2.00;99.90;;;1.28;96.35;96095.38;171615;28;1262;-73
2021/12/02 00:30:32;;;;;;;5.60;2.70;;;2.00;99.90;;;1.62;96.11;96151.75;172366;28;1452;-73
2021/12/02 00:30:39;;;;;;;6.16;2.84;;;2.00;99.90;;;1.48;96.18;96131.19;173100;28;901;-73
2021/12/02 00:30:45;;;;;;;6.40;2.93;;;2.00;99.90;;;1.54;96.14;96138.50;171863;28;966;-73
2021/12/02 00:30:56;;;;;;;6.10;3.07;;;2.00;99.90;;;1.50;96.11;96133.69;171407;28;1426;-73
2021/12/02 00:31:02;;;;;;;7.07;3.00;;;2.00;99.90;;;1.62;95.63;96150.91;172214;28;1259;-75
2021/12/02 00:31:19;;;;;;;6.60;2.92;;;2.00;99.90;;;1.47;95.51;96129.53;171886;28;962;-73
2021/12/02 00:31:30;;;;;;;7.16;3.06;;;2.00;99.90;;;1.59;96.24;96146.78;171097;28;1200;-74
2021/12/02 00:31:39;;;;;;;7.96;3.18;;;2.00;99.90;;;1.64;95.86;96154.25;172144;28;1989;-74
2021/12/02 00:31:47;;;;;;;8.07;3.33;;;2.00;99.90;;;1.49;96.08;96124.88;172682;28;2554;-73
2021/12/02 00:31:53;;;;;;;7.37;3.13;;;2.00;99.90;;;1.56;95.80;96146.25;173007;28;1420;-74
2021/12/02 00:32:06;;;;;;;6.18;2.90;;;2.00;99.90;;;1.47;95.93;96126.88;172401;28;1601;-74
2021/12/02 00:32:12;;;;;;;6.04;2.92;;;2.00;99.90;;;1.35;95.55;96098.22;171595;28;1339;-73
2021/12/02 00:32:19;;;;;;;6.57;2.75;;;2.00;99.90;;;1.61;96.18;96149.25;172516;28;1140;-73
2021/12/02 00:32:30;;;;;;;7.70;2.80;;;2.00;99.90;;;1.59;95.67;96140.66;171792;28;1255;-73
2021/12/02 00:32:41;;;;;;;7.67;2.78;;;2.00;99.90;;;1.49;96.29;96124.88;172167;28;1375;-73
2021/12/02 00:32:48;;;;;;;7.07;2.64;;;2.00;99.90;;;1.61;95.93;96147.44;173457;28;1492;-73
2021/12/02 00:32:56;;;;;;;8.62;2.48;;;2.00;99.90;;;1.41;95.58;96116.06;172331;28;1478;-73
2021/12/02 00:33:03;;;;;;;8.52;2.30;;;2.00;99.90;;;1.64;96.36;96149.75;173620;28;1468;-73
2021/12/02 00:33:10;;;;;;;8.48;2.30;;;2.00;99.90;;;1.60;96.49;96142.31;173767;28;1374;-73
2021/12/02 00:33:17;;;;;;;9.43;2.27;;;2.00;99.90;;;1.36;95.91;96103.31;173124;28;952;-74
2021/12/02 00:33:29;;;;;;;6.58;2.52;;;2.00;99.90;;;1.63;96.20;96145.44;171880;28;983;-72
2021/12/02 00:33:37;;;;;;;6.99;2.61;;;2.00;99.90;;;1.54;96.04;96132.34;171142;28;1208;-73
2021/12/02 00:33:56;;;;;;;6.40;2.65;;;2.00;99.90;;;1.63;96.10;96141.97;173271;28;1496;-73
2021/12/02 00:34:07;;;;;;;6.04;2.35;;;2.00;99.90;;;1.54;95.50;96133.19;173084;28;1471;-74
2021/12/02 00:34:14;;;;;;;6.76;2.10;;;2.00;99.90;;;1.64;95.68;96140.97;172447;28;1565;-73
2021/12/02 00:34:22;;;;;;;6.67;2.20;;;2.00;99.90;;;1.53;96.06;96128.88;172688;28;1402;-74
2021/12/02 00:34:30;;;;;;;6.15;2.12;;;2.00;99.90;;;1.64;95.72;96144.47;171738;28;1224;-73
2021/12/02 00:34:45;;;;;;;5.57;2.43;;;2.00;99.90;;;1.57;95.78;96130.19;170676;28;1168;-73
2021/12/02 00:34:51;;;;;;;5.65;2.65;;;2.00;99.90;;;1.50;95.90;96121.22;172207;28;1512;-73
2021/12/02 00:34:58;;;;;;;5.95;2.70;;;2.00;99.90;;;1.64;96.04;96141.81;173157;28;1050;-73
2021/12/02 00:35:04;;;;;;;6.20;2.60;;;2.00;99.90;;;1.63;95.69;96137.50;171736;28;903;-73
2021/12/02 00:35:11;;;;;;;5.57;2.30;;;2.00;99.90;;;1.65;96.08;96147.94;171795;28;1256;-73
2021/12/02 00:35:17;;;;;;;6.07;2.33;;;2.00;99.90;;;1.64;95.56;96139.16;170978;28;1404;-73
2021/12/02 00:35:24;;;;;;;6.82;2.30;;;2.00;99.90;;;1.68;95.93;96142.31;172814;28;1800;-74
2021/12/02 00:35:30;;;;;;;6.60;2.30;;;2.00;99.90;;;1.64;95.95;96138.31;172217;28;1290;-73
2021/12/02 00:35:36;;;;;;;6.43;2.20;;;2.00;99.90;;;1.58;95.68;96137.16;170908;28;1543;-74
2021/12/02 00:35:44;;;;;;;6.10;2.33;;;2.00;99.90;;;1.68;96.12;96151.09;170974;28;1394;-73
2021/12/02 00:35:51;;;;;;;6.43;2.57;;;2.00;99.90;;;1.54;95.82;96122.56;171571;28;1470;-73
2021/12/02 00:35:58;;;;;;;6.17;2.73;;;2.00;99.90;;;1.65;96.25;96143.47;172426;28;1071;-73
2021/12/02 00:36:05;;;;;;;6.63;2.90;;;2.00;99.90;;;1.62;96.39;96132.34;172356;28;1227;-73
2021/12/02 00:36:14;;;;;;;7.66;3.24;;;2.00;99.90;;;1.53;95.56;96115.63;171937;28;1770;-73
2021/12/02 00:36:26;;;;;;;7.03;3.23;;;2.00;99.90;;;1.60;95.93;96129.06;173606;28;1556;-74
2021/12/02 00:36:36;;;;;;;7.24;3.24;;;2.00;99.90;;;1.45;95.98;96107.63;173115;28;1250;-75
2021/12/02 00:36:43;;;;;;;6.61;2.87;;;2.00;99.90;;;1.37;95.97;96091.72;173647;28;1556;-73
2021/12/02 00:36:49;;;;;;;6.97;2.67;;;2.00;99.90;;;1.53;96.11;96123.56;171579;28;1122;-73
2021/12/02 00:37:00;;;;;;;7.57;2.58;;;2.00;99.90;;;1.65;96.16;96138.16;172352;28;1198;-73
2021/12/02 00:37:06;;;;;;;6.46;2.56;;;2.00;99.90;;;1.67;95.91;96145.94;173127;28;1228;-73
2021/12/02 00:37:13;;;;;;;6.38;2.58;;;2.00;99.90;;;1.56;96.00;96125.88;171670;28;1815;-73
2021/12/02 00:37:19;;;;;;;6.08;2.52;;;2.00;99.90;;;1.64;96.03;96140.97;172368;28;1789;-72
2021/12/02 00:37:27;;;;;;;6.32;2.67;;;2.00;99.90;;;1.30;96.03;96090.72;173093;28;1044;-72
2021/12/02 00:37:33;;;;;;;6.57;2.53;;;2.00;99.90;;;1.59;96.20;96135.34;172492;28;923;-73
2021/12/02 00:37:40;;;;;;;7.10;2.70;;;2.00;99.90;;;1.62;95.69;96135.00;172993;28;1270;-73
2021/12/02 00:37:47;;;;;;;7.87;2.70;;;2.00;99.90;;;1.54;96.33;96132.34;171898;28;1398;-73
2021/12/02 00:37:53;;;;;;;8.34;2.64;;;2.00;99.90;;;1.53;96.03;96120.09;170622;28;1501;-73
2021/12/02 00:38:01;;;;;;;8.23;2.60;;;2.00;99.90;;;1.54;95.83;96133.19;171781;28;1479;-73
2021/12/02 00:38:08;;;;;;;8.72;2.55;;;2.00;99.90;;;1.55;96.16;96132.19;171108;28;1148;-73
2021/12/02 00:38:15;;;;;;;8.14;2.48;;;2.00;99.90;;;1.60;95.77;96132.53;173087;28;887;-73
2021/12/02 00:38:24;;;;;;;7.03;2.47;;;2.00;99.90;;;1.58;95.83;96136.31;173010;28;860;-73
2021/12/02 00:38:30;;;;;;;6.00;2.60;;;2.00;99.90;;;1.54;96.05;96129.69;173051;28;1514;-73
2021/12/02 00:38:39;;;;;;;5.43;2.70;;;2.00;99.90;;;1.54;95.98;96121.75;172373;28;989;-74
2021/12/02 00:38:46;;;;;;;5.46;2.54;;;2.00;99.90;;;1.53;95.76;96125.38;173067;28;1425;-73
2021/12/02 00:38:55;;;;;;;9.12;2.52;;;2.00;99.90;;;1.63;95.96;96145.44;173080;28;954;-74
2021/12/02 00:39:16;;;;;;;10.70;2.82;;;2.00;99.90;;;1.46;95.88;96117.25;173116;28;936;-73
2021/12/02 00:39:22;;;;;;;9.18;2.89;;;2.00;99.90;;;1.25;95.97;96085.91;172338;28;1993;-73
2021/12/02 00:39:31;;;;;;;6.65;2.90;;;2.00;99.90;;;1.58;95.97;96138.97;170808;28;1061;-74
2021/12/02 00:39:38;;;;;;;6.99;2.81;;;2.00;99.90;;;1.51;96.44;96127.34;170876;28;1023;-73
2021/12/02 00:39:44;;;;;;;6.70;2.67;;;2.00;99.90;;;1.57;96.39;96138.16;172075;28;1402;-73
2021/12/02 00:39:54;;;;;;;6.63;2.53;;;2.00;99.90;;;1.62;96.43;96150.91;172506;28;1331;-74
2021/12/02 00:40:00;;;;;;;6.11;2.41;;;2.00;99.90;;;1.57;96.35;96143.44;173166;28;1097;-74
2021/12/02 00:40:07;;;;;;;5.72;2.33;;;2.00;99.90;;;1.63;96.34;96147.28;171732;28;951;-73
2021/12/02 00:40:13;;;;;;;6.72;2.47;;;2.00;99.90;;;1.46;96.48;96119.91;171741;28;1492;-73
2021/12/02 00:40:19;;;;;;;7.40;2.72;;;2.00;99.90;;;1.26;96.16;96086.75;171485;28;1123;-74
2021/12/02 00:40:25;;;;;;;7.83;3.00;;;2.00;99.90;;;1.56;95.87;96144.44;172476;28;1173;-74